Time;durP1;ratioP1;P1;durP2;ratioP2;P2;SDS_P1;SDS_P2;PMS_P1;PMS_P2;Temp;Humidity;BMP_temperature;BMP_pressure;BME280_temperature;BME280_humidity;BME280_pressure;Samples;Min_cycle;Max_cycle;Signal;HPM_P1;HPM_P2
2023/07/15 00:00:34;;;;;;;9.25;7.45;;;;;;;;;;5072026;28;20140;-69
2023/07/15 00:03:00;;;;;;;9.48;7.13;;;;;;;;;;5082639;28;20052;-70
2023/07/15 00:05:35;;;;;;;10.20;8.07;;;;;;;;;;5075510;28;20067;-70
2023/07/15 00:08:01;;;;;;;9.48;7.70;;;;;;;;;;5056048;28;20061;-70
2023/07/15 00:10:27;;;;;;;9.32;7.78;;;;;;;;;;5051326;28;20072;-70
2023/07/15 00:12:53;;;;;;;9.25;7.70;;;;;;;;;;5071624;28;20067;-70
2023/07/15 00:15:19;;;;;;;9.82;7.55;;;;;;;;;;5055406;28;20498;-69
2023/07/15 00:17:45;;;;;;;8.07;7.25;;;;;;;;;;5079815;28;20059;-70
2023/07/15 00:20:14;;;;;;;8.50;7.03;;;;;;;;;;5078279;28;20559;-70
2023/07/15 00:22:41;;;;;;;8.45;7.55;;;;;;;;;;5043405;28;20059;-70
2023/07/15 00:25:10;;;;;;;16.35;7.45;;;;;;;;;;5078086;28;20132;-70
2023/07/15 00:27:36;;;;;;;9.88;7.22;;;;;;;;;;5077758;28;20051;-70
2023/07/15 00:30:02;;;;;;;8.70;7.00;;;;;;;;;;5054310;28;20402;-70
2023/07/15 00:32:28;;;;;;;9.20;6.50;;;;;;;;;;5059764;28;20094;-70
2023/07/15 00:34:54;;;;;;;8.57;6.82;;;;;;;;;;5062493;28;20445;-70
2023/07/15 00:37:20;;;;;;;9.77;6.38;;;;;;;;;;5088982;28;20040;-70
2023/07/15 00:39:46;;;;;;;7.57;6.22;;;;;;;;;;5059380;28;20063;-70
2023/07/15 00:42:18;;;;;;;12.30;7.00;;;;;;;;;;5075335;28;20041;-70
2023/07/15 00:44:44;;;;;;;8.10;6.53;;;;;;;;;;5055655;28;20102;-70
2023/07/15 00:47:21;;;;;;;9.07;6.63;;;;;;;;;;5072835;28;20050;-70
2023/07/15 00:49:48;;;;;;;8.18;6.47;;;;;;;;;;5069238;28;20097;-70
2023/07/15 00:52:14;;;;;;;9.82;6.75;;;;;;;;;;5073207;28;20049;-70
2023/07/15 00:54:42;;;;;;;11.48;6.90;;;;;;;;;;5053563;28;20049;-70
2023/07/15 00:57:09;;;;;;;8.60;6.82;;;;;;;;;;5055726;28;20048;-70
2023/07/15 00:59:36;;;;;;;8.18;6.63;;;;;;;;;;5072813;28;20044;-70
2023/07/15 01:02:02;;;;;;;11.20;6.95;;;;;;;;;;5074200;28;20123;-70
2023/07/15 01:04:28;;;;;;;7.90;6.70;;;;;;;;;;5076316;28;20048;-70
2023/07/15 01:06:55;;;;;;;10.35;6.75;;;;;;;;;;5069985;28;20052;-70
2023/07/15 01:09:21;;;;;;;8.18;6.57;;;;;;;;;;5068351;28;20051;-70
2023/07/15 01:11:48;;;;;;;12.90;7.05;;;;;;;;;;5079776;28;20122;-70
2023/07/15 01:14:14;;;;;;;11.30;7.55;;;;;;;;;;5063951;28;20040;-70
2023/07/15 01:16:40;;;;;;;8.05;6.00;;;;;;;;;;5080769;28;20105;-70
2023/07/15 01:19:07;;;;;;;8.20;6.53;;;;;;;;;;5080631;28;20403;-70
2023/07/15 01:21:37;;;;;;;12.38;6.82;;;;;;;;;;5079827;28;20798;-70
2023/07/15 01:24:03;;;;;;;11.32;6.72;;;;;;;;;;5079109;28;20044;-70
2023/07/15 01:26:30;;;;;;;8.07;6.57;;;;;;;;;;5072750;28;20048;-70
2023/07/15 01:28:56;;;;;;;6.95;6.25;;;;;;;;;;5069523;28;20415;-70
2023/07/15 01:31:22;;;;;;;10.63;6.53;;;;;;;;;;5056132;28;20522;-70
2023/07/15 01:33:48;;;;;;;8.02;5.60;;;;;;;;;;5060528;28;20048;-70
2023/07/15 01:36:14;;;;;;;8.38;5.80;;;;;;;;;;5081174;28;20064;-70
2023/07/15 01:38:40;;;;;;;7.93;6.20;;;;;;;;;;5076397;28;20036;-70
2023/07/15 01:41:07;;;;;;;9.02;5.70;;;;;;;;;;5080961;28;20036;-70
2023/07/15 01:43:33;;;;;;;7.97;5.35;;;;;;;;;;5065692;28;20937;-70
2023/07/15 01:45:59;;;;;;;7.55;5.35;;;;;;;;;;5052756;28;20476;-70
2023/07/15 01:48:26;;;;;;;9.50;5.88;;;;;;;;;;5063034;28;20054;-70
2023/07/15 01:50:52;;;;;;;9.45;5.47;;;;;;;;;;5057793;28;20040;-70
2023/07/15 01:53:18;;;;;;;10.35;5.65;;;;;;;;;;5091962;28;20047;-70
2023/07/15 01:55:44;;;;;;;7.25;5.60;;;;;;;;;;5081346;28;20044;-70
2023/07/15 01:58:10;;;;;;;7.43;5.65;;;;;;;;;;5067865;28;20059;-70
2023/07/15 02:00:37;;;;;;;7.03;5.60;;;;;;;;;;5054200;28;20500;-70
2023/07/15 02:03:03;;;;;;;9.70;6.00;;;;;;;;;;5043764;28;20049;-70
2023/07/15 02:05:29;;;;;;;9.80;5.80;;;;;;;;;;5082791;28;20052;-70
2023/07/15 02:07:55;;;;;;;12.55;5.97;;;;;;;;;;5080928;28;20057;-70
2023/07/15 02:10:22;;;;;;;6.82;5.80;;;;;;;;;;5072480;28;20056;-70
2023/07/15 02:12:48;;;;;;;8.48;5.57;;;;;;;;;;5059495;28;20101;-70
2023/07/15 02:15:14;;;;;;;8.45;5.85;;;;;;;;;;5071892;28;20475;-70
2023/07/15 02:17:42;;;;;;;9.80;6.00;;;;;;;;;;5074766;28;20106;-70
2023/07/15 02:20:09;;;;;;;9.25;6.03;;;;;;;;;;5054344;28;20143;-70
2023/07/15 02:22:37;;;;;;;9.35;5.78;;;;;;;;;;5063311;28;20399;-70
2023/07/15 02:25:03;;;;;;;9.60;6.20;;;;;;;;;;5092126;28;20040;-70
2023/07/15 02:27:30;;;;;;;10.02;5.68;;;;;;;;;;5054357;28;20048;-70
2023/07/15 02:29:56;;;;;;;7.70;5.75;;;;;;;;;;5054125;28;20040;-70
2023/07/15 02:32:35;;;;;;;8.85;6.10;;;;;;;;;;5070411;28;20421;-70
2023/07/15 02:35:02;;;;;;;7.97;5.63;;;;;;;;;;5085189;28;20123;-70
2023/07/15 02:37:28;;;;;;;7.47;5.47;;;;;;;;;;5087403;28;20492;-70
2023/07/15 02:39:54;;;;;;;9.13;5.55;;;;;;;;;;5089227;28;20051;-70
2023/07/15 02:42:20;;;;;;;6.45;5.32;;;;;;;;;;5052422;28;20044;-70
2023/07/15 02:44:46;;;;;;;7.05;5.50;;;;;;;;;;5039274;28;20075;-70
2023/07/15 02:47:12;;;;;;;7.40;5.45;;;;;;;;;;5060834;28;20040;-70
2023/07/15 02:49:38;;;;;;;10.90;5.93;;;;;;;;;;5071853;28;20506;-70
2023/07/15 02:52:04;;;;;;;9.25;6.15;;;;;;;;;;5069581;28;20056;-70
2023/07/15 02:54:30;;;;;;;8.48;5.75;;;;;;;;;;5070031;28;20377;-70
2023/07/15 02:56:57;;;;;;;8.18;6.18;;;;;;;;;;5033850;28;20032;-70
2023/07/15 02:59:23;;;;;;;7.43;5.85;;;;;;;;;;5041231;28;20512;-70
2023/07/15 03:01:49;;;;;;;7.95;5.47;;;;;;;;;;5046417;28;20084;-70
2023/07/15 03:04:15;;;;;;;9.10;5.88;;;;;;;;;;5060225;28;20110;-70
2023/07/15 03:06:41;;;;;;;12.40;5.85;;;;;;;;;;5066184;28;20052;-70
2023/07/15 03:09:07;;;;;;;8.32;5.80;;;;;;;;;;5060966;28;20379;-70
2023/07/15 03:11:33;;;;;;;8.40;5.70;;;;;;;;;;5070758;28;20052;-70
2023/07/15 03:13:59;;;;;;;9.02;5.68;;;;;;;;;;5068196;28;20040;-70
2023/07/15 03:16:26;;;;;;;5.43;4.90;;;;;;;;;;5076168;28;20086;-70
2023/07/15 03:18:52;;;;;;;10.35;5.95;;;;;;;;;;5074882;28;20480;-70
2023/07/15 03:21:18;;;;;;;7.55;5.10;;;;;;;;;;5061587;28;20533;-70
2023/07/15 03:23:44;;;;;;;7.63;5.13;;;;;;;;;;5056538;28;20053;-70
2023/07/15 03:26:10;;;;;;;7.50;5.25;;;;;;;;;;5061450;28;20494;-70
2023/07/15 03:28:36;;;;;;;8.50;5.18;;;;;;;;;;5054746;28;20059;-70
2023/07/15 03:31:03;;;;;;;6.93;4.57;;;;;;;;;;5074710;28;20049;-70
2023/07/15 03:33:29;;;;;;;9.20;5.55;;;;;;;;;;5074767;28;20052;-70
2023/07/15 03:35:55;;;;;;;7.40;4.75;;;;;;;;;;5073655;28;20090;-70
2023/07/15 03:38:21;;;;;;;8.07;4.85;;;;;;;;;;5049556;28;20394;-70
2023/07/15 03:40:49;;;;;;;8.60;4.50;;;;;;;;;;5075526;28;20385;-70
2023/07/15 03:43:17;;;;;;;9.70;4.95;;;;;;;;;;5055516;28;20047;-70
2023/07/15 03:45:43;;;;;;;9.20;4.72;;;;;;;;;;5076725;28;20052;-70
2023/07/15 03:48:09;;;;;;;9.45;4.95;;;;;;;;;;5057540;28;20037;-70
2023/07/15 03:50:35;;;;;;;12.30;5.05;;;;;;;;;;5067703;28;20044;-70
2023/07/15 03:53:01;;;;;;;10.00;5.03;;;;;;;;;;5077519;28;20041;-70
2023/07/15 03:55:29;;;;;;;7.07;4.72;;;;;;;;;;5070981;28;20051;-70
2023/07/15 03:57:55;;;;;;;8.60;4.85;;;;;;;;;;5078464;28;20040;-70
2023/07/15 04:00:21;;;;;;;9.27;4.93;;;;;;;;;;5064996;28;20055;-70
2023/07/15 04:02:49;;;;;;;6.50;4.43;;;;;;;;;;5057092;28;20147;-70
2023/07/15 04:05:16;;;;;;;6.88;4.40;;;;;;;;;;5071652;28;20048;-70
2023/07/15 04:07:43;;;;;;;7.65;3.90;;;;;;;;;;5047088;28;20052;-70
2023/07/15 04:10:10;;;;;;;8.45;4.30;;;;;;;;;;5079061;28;20107;-70
2023/07/15 04:12:36;;;;;;;3.78;3.45;;;;;;;;;;5076306;28;20048;-70
2023/07/15 04:15:02;;;;;;;5.18;3.53;;;;;;;;;;5061125;28;20047;-70
2023/07/15 04:17:28;;;;;;;5.20;3.72;;;;;;;;;;5073749;28;20446;-70
2023/07/15 04:19:54;;;;;;;7.32;3.40;;;;;;;;;;5046029;28;20056;-70
2023/07/15 04:22:20;;;;;;;4.65;3.45;;;;;;;;;;5076649;28;20752;-70
2023/07/15 04:24:46;;;;;;;4.75;3.30;;;;;;;;;;5082248;28;20054;-70
2023/07/15 04:27:12;;;;;;;6.32;3.60;;;;;;;;;;5077411;28;20056;-70
2023/07/15 04:29:38;;;;;;;7.05;3.83;;;;;;;;;;5075853;28;20129;-70
2023/07/15 04:32:04;;;;;;;5.60;3.58;;;;;;;;;;5070718;28;20101;-69
2023/07/15 04:34:30;;;;;;;9.15;3.90;;;;;;;;;;5087332;28;20036;-69
2023/07/15 04:36:56;;;;;;;6.00;4.18;;;;;;;;;;5068893;28;20076;-69
2023/07/15 04:39:22;;;;;;;5.75;4.10;;;;;;;;;;5081648;28;20434;-70
2023/07/15 04:41:48;;;;;;;5.80;4.00;;;;;;;;;;5084041;28;20129;-69
2023/07/15 04:44:14;;;;;;;7.15;4.40;;;;;;;;;;5092310;28;20056;-69
2023/07/15 04:46:40;;;;;;;7.05;4.45;;;;;;;;;;5050402;28;20040;-70
2023/07/15 04:49:06;;;;;;;7.22;4.57;;;;;;;;;;5054959;28;20135;-68
2023/07/15 04:51:32;;;;;;;7.82;4.80;;;;;;;;;;5073816;28;20078;-67
2023/07/15 04:54:00;;;;;;;7.22;4.68;;;;;;;;;;5072710;28;20040;-68
2023/07/15 04:56:26;;;;;;;10.48;5.95;;;;;;;;;;5073546;28;20047;-68
2023/07/15 04:58:52;;;;;;;7.47;6.03;;;;;;;;;;5072368;28;20476;-68
2023/07/15 05:01:18;;;;;;;8.65;6.00;;;;;;;;;;5072719;28;20120;-67
2023/07/15 05:03:44;;;;;;;10.23;5.95;;;;;;;;;;5073911;28;20083;-67
2023/07/15 05:06:10;;;;;;;6.88;5.63;;;;;;;;;;5072352;28;20087;-67
2023/07/15 05:08:37;;;;;;;6.10;5.35;;;;;;;;;;5072640;28;20098;-68
2023/07/15 05:11:03;;;;;;;6.78;5.30;;;;;;;;;;5072794;28;20397;-67
2023/07/15 05:13:30;;;;;;;7.78;4.47;;;;;;;;;;5055249;28;20033;-68
2023/07/15 05:15:56;;;;;;;6.45;5.10;;;;;;;;;;5072361;28;20056;-68
2023/07/15 05:18:22;;;;;;;7.75;4.53;;;;;;;;;;5073658;28;20511;-68
2023/07/15 05:20:48;;;;;;;6.78;4.95;;;;;;;;;;5043527;28;20041;-67
2023/07/15 05:23:14;;;;;;;8.07;5.20;;;;;;;;;;5075142;28;20055;-68
2023/07/15 05:25:40;;;;;;;5.10;4.40;;;;;;;;;;5085111;28;20519;-68
2023/07/15 05:28:06;;;;;;;4.50;4.07;;;;;;;;;;5071460;28;20044;-67
2023/07/15 05:30:35;;;;;;;6.25;4.47;;;;;;;;;;5072592;28;20052;-67
2023/07/15 05:33:01;;;;;;;7.85;4.25;;;;;;;;;;5070871;28;20040;-67
2023/07/15 05:35:27;;;;;;;7.68;4.50;;;;;;;;;;5062908;28;20113;-67
2023/07/15 05:37:53;;;;;;;7.40;3.90;;;;;;;;;;5057430;28;20052;-68
2023/07/15 05:40:19;;;;;;;5.47;3.80;;;;;;;;;;5059522;28;20495;-68
2023/07/15 05:42:46;;;;;;;4.57;3.67;;;;;;;;;;5074404;28;20499;-67
2023/07/15 05:45:12;;;;;;;4.45;4.05;;;;;;;;;;5072581;28;20037;-67
2023/07/15 05:47:39;;;;;;;5.30;4.22;;;;;;;;;;5053525;28;20072;-68
2023/07/15 05:50:06;;;;;;;7.25;4.20;;;;;;;;;;5053224;28;20135;-68
2023/07/15 05:52:32;;;;;;;6.63;4.78;;;;;;;;;;5087015;28;20086;-67
2023/07/15 05:54:58;;;;;;;7.18;4.25;;;;;;;;;;5072560;28;20119;-68
2023/07/15 05:57:24;;;;;;;9.73;5.00;;;;;;;;;;5073478;28;20036;-68
2023/07/15 05:59:51;;;;;;;4.63;4.10;;;;;;;;;;5077202;28;20080;-68
2023/07/15 06:02:17;;;;;;;6.68;4.30;;;;;;;;;;5058421;28;20048;-68
2023/07/15 06:04:43;;;;;;;4.47;3.75;;;;;;;;;;5082885;28;20054;-68
2023/07/15 06:07:09;;;;;;;5.05;4.20;;;;;;;;;;5055885;28;20052;-67
2023/07/15 06:09:35;;;;;;;5.78;4.07;;;;;;;;;;5051081;28;20079;-67
2023/07/15 06:12:02;;;;;;;6.05;3.22;;;;;;;;;;5057509;28;20040;-68
2023/07/15 06:14:28;;;;;;;6.07;3.40;;;;;;;;;;5076635;28;20455;-67
2023/07/15 06:16:55;;;;;;;5.93;3.67;;;;;;;;;;5067762;28;20041;-68
2023/07/15 06:19:21;;;;;;;5.18;3.50;;;;;;;;;;5050258;28;20135;-67
2023/07/15 06:21:47;;;;;;;6.95;3.63;;;;;;;;;;5065513;28;20033;-68
2023/07/15 06:24:13;;;;;;;7.65;3.90;;;;;;;;;;5062160;28;20057;-68
2023/07/15 06:26:39;;;;;;;5.82;2.95;;;;;;;;;;5059015;28;20047;-68
2023/07/15 06:29:05;;;;;;;9.68;3.35;;;;;;;;;;5079059;28;20037;-68
2023/07/15 06:31:31;;;;;;;10.50;3.30;;;;;;;;;;5042903;28;20404;-68
2023/07/15 06:33:57;;;;;;;14.73;3.88;;;;;;;;;;5054245;28;20044;-68
2023/07/15 06:36:23;;;;;;;6.00;3.47;;;;;;;;;;5075132;28;20171;-70
2023/07/15 06:38:49;;;;;;;10.50;3.80;;;;;;;;;;5066403;28;20063;-70
2023/07/15 06:41:16;;;;;;;10.52;3.50;;;;;;;;;;5069794;28;20048;-70
2023/07/15 06:43:42;;;;;;;8.45;3.30;;;;;;;;;;5083148;28;20044;-70
2023/07/15 06:46:08;;;;;;;5.65;3.10;;;;;;;;;;5053644;28;20076;-70
2023/07/15 06:48:34;;;;;;;8.27;3.20;;;;;;;;;;5085894;28;20044;-70
2023/07/15 06:51:00;;;;;;;6.30;2.92;;;;;;;;;;5050692;28;20484;-70
2023/07/15 06:53:27;;;;;;;11.45;3.08;;;;;;;;;;5059603;28;20040;-70
2023/07/15 06:55:53;;;;;;;5.75;2.90;;;;;;;;;;5052996;28;20432;-70
2023/07/15 06:58:20;;;;;;;8.70;2.80;;;;;;;;;;5067979;28;20138;-70
2023/07/15 07:00:46;;;;;;;7.03;2.80;;;;;;;;;;5066441;28;20047;-70
2023/07/15 07:03:12;;;;;;;6.45;3.05;;;;;;;;;;5076288;28;20048;-70
2023/07/15 07:05:38;;;;;;;7.95;3.05;;;;;;;;;;5049428;28;20446;-70
2023/07/15 07:08:04;;;;;;;11.02;3.35;;;;;;;;;;5056936;28;20103;-70
2023/07/15 07:10:30;;;;;;;10.63;3.03;;;;;;;;;;5048535;28;20551;-70
2023/07/15 07:12:56;;;;;;;7.38;3.30;;;;;;;;;;5068725;28;20067;-70
2023/07/15 07:15:22;;;;;;;8.63;3.13;;;;;;;;;;5049662;28;20492;-70
2023/07/15 07:17:48;;;;;;;11.38;3.25;;;;;;;;;;5056176;28;20049;-70
2023/07/15 07:20:14;;;;;;;9.10;3.17;;;;;;;;;;5060667;28;20543;-70
2023/07/15 07:22:40;;;;;;;8.82;3.20;;;;;;;;;;5060026;28;20044;-70
2023/07/15 07:25:07;;;;;;;11.70;3.90;;;;;;;;;;5055235;28;20047;-70
2023/07/15 07:27:33;;;;;;;9.60;3.33;;;;;;;;;;5068089;28;20059;-70
2023/07/15 07:29:59;;;;;;;7.50;2.97;;;;;;;;;;5070074;28;20036;-70
2023/07/15 07:32:26;;;;;;;15.18;3.70;;;;;;;;;;5084449;28;20044;-70
2023/07/15 07:34:52;;;;;;;10.70;3.60;;;;;;;;;;5060111;28;20052;-70
2023/07/15 07:37:18;;;;;;;13.88;4.20;;;;;;;;;;5065799;28;20396;-70
2023/07/15 07:39:44;;;;;;;8.93;3.38;;;;;;;;;;5070131;28;20051;-71
2023/07/15 07:42:10;;;;;;;9.55;3.60;;;;;;;;;;5070686;28;20044;-70
2023/07/15 07:44:36;;;;;;;9.77;3.75;;;;;;;;;;5070725;28;20088;-70
2023/07/15 07:47:02;;;;;;;9.15;3.28;;;;;;;;;;5052704;28;20590;-70
2023/07/15 07:49:28;;;;;;;12.82;3.20;;;;;;;;;;5052775;28;20145;-70
2023/07/15 07:51:54;;;;;;;8.95;3.05;;;;;;;;;;5049933;28;20518;-70
2023/07/15 07:54:20;;;;;;;10.73;3.60;;;;;;;;;;5069665;28;20127;-70
2023/07/15 07:56:46;;;;;;;11.23;3.22;;;;;;;;;;5050261;28;20102;-70
2023/07/15 07:59:12;;;;;;;9.43;2.80;;;;;;;;;;5054228;28;20052;-70
2023/07/15 08:01:39;;;;;;;5.68;2.85;;;;;;;;;;5055251;28;20048;-70
2023/07/15 08:04:05;;;;;;;13.88;7.10;;;;;;;;;;5074314;28;20053;-69
2023/07/15 08:06:31;;;;;;;11.20;4.20;;;;;;;;;;5075312;28;20123;-69
2023/07/15 08:08:57;;;;;;;7.53;3.28;;;;;;;;;;5056144;28;20049;-70
2023/07/15 08:11:23;;;;;;;9.80;2.95;;;;;;;;;;5068389;28;20127;-69
2023/07/15 08:13:50;;;;;;;11.55;3.75;;;;;;;;;;5070786;28;20032;-70
2023/07/15 08:16:30;;;;;;;8.38;3.15;;;;;;;;;;5072909;28;20107;-70
2023/07/15 08:18:56;;;;;;;8.55;3.17;;;;;;;;;;5082375;28;20047;-70
2023/07/15 08:21:22;;;;;;;9.60;3.42;;;;;;;;;;5056690;28;20083;-70
2023/07/15 08:23:48;;;;;;;8.07;3.17;;;;;;;;;;5073196;28;20495;-70
2023/07/15 08:26:14;;;;;;;9.70;3.58;;;;;;;;;;5072477;28;20045;-70
2023/07/15 08:28:40;;;;;;;7.15;3.17;;;;;;;;;;5072799;28;20044;-70
2023/07/15 08:31:06;;;;;;;8.00;3.00;;;;;;;;;;5054090;28;20105;-70
2023/07/15 08:33:33;;;;;;;8.70;3.38;;;;;;;;;;5073942;28;20048;-70
2023/07/15 08:35:59;;;;;;;9.73;3.10;;;;;;;;;;5072460;28;20121;-70
2023/07/15 08:38:25;;;;;;;9.57;3.20;;;;;;;;;;5050371;28;20040;-70
2023/07/15 08:40:52;;;;;;;11.60;3.70;;;;;;;;;;5054648;28;20131;-70
2023/07/15 08:43:18;;;;;;;8.63;3.70;;;;;;;;;;5071401;28;20131;-70
2023/07/15 08:45:46;;;;;;;9.13;3.33;;;;;;;;;;5070624;28;20080;-71
2023/07/15 08:48:15;;;;;;;8.77;3.42;;;;;;;;;;5054378;28;20127;-70
2023/07/15 08:50:42;;;;;;;7.07;3.03;;;;;;;;;;5055439;28;20052;-70
2023/07/15 08:53:08;;;;;;;9.15;3.30;;;;;;;;;;5072541;28;20033;-70
2023/07/15 08:55:35;;;;;;;6.88;3.10;;;;;;;;;;5068715;28;20052;-70
2023/07/15 08:58:01;;;;;;;8.85;3.05;;;;;;;;;;5065756;28;20044;-70
2023/07/15 09:00:27;;;;;;;7.35;3.17;;;;;;;;;;5051800;28;20048;-70
2023/07/15 09:02:54;;;;;;;7.32;3.20;;;;;;;;;;5061144;28;20053;-70
2023/07/15 09:05:20;;;;;;;6.85;3.08;;;;;;;;;;5060271;28;20049;-70
2023/07/15 09:07:51;;;;;;;8.35;3.55;;;;;;;;;;5068556;28;20139;-70
2023/07/15 09:10:17;;;;;;;10.90;3.92;;;;;;;;;;5066659;28;20098;-70
2023/07/15 09:12:47;;;;;;;7.57;3.22;;;;;;;;;;5069596;28;20256;-71
2023/07/15 09:15:13;;;;;;;8.68;3.50;;;;;;;;;;5055197;28;20048;-71
2023/07/15 09:17:40;;;;;;;9.95;3.05;;;;;;;;;;5073388;28;20052;-70
2023/07/15 09:20:14;;;;;;;15.98;3.85;;;;;;;;;;5055113;28;20056;-70
2023/07/15 09:22:40;;;;;;;14.25;3.97;;;;;;;;;;5054392;28;20049;-70
2023/07/15 09:25:06;;;;;;;5.97;3.17;;;;;;;;;;5071864;28;20480;-70
2023/07/15 09:27:32;;;;;;;7.53;3.42;;;;;;;;;;5055781;28;20051;-70
2023/07/15 09:29:59;;;;;;;6.85;3.00;;;;;;;;;;5053867;28;20051;-70
2023/07/15 09:32:25;;;;;;;5.43;2.90;;;;;;;;;;5073134;28;20048;-70
2023/07/15 09:34:54;;;;;;;9.05;3.40;;;;;;;;;;5073339;28;20129;-70
2023/07/15 09:37:27;;;;;;;12.00;3.13;;;;;;;;;;5054324;28;20408;-70
2023/07/15 09:39:57;;;;;;;9.60;3.28;;;;;;;;;;5071955;28;20214;-70
2023/07/15 09:42:23;;;;;;;8.38;3.60;;;;;;;;;;5073386;28;20492;-70
2023/07/15 09:44:49;;;;;;;8.43;3.40;;;;;;;;;;5041480;28;20047;-70
2023/07/15 09:47:15;;;;;;;6.00;3.15;;;;;;;;;;5070523;28;20048;-70
2023/07/15 09:49:41;;;;;;;7.45;3.30;;;;;;;;;;5072353;28;20037;-70
2023/07/15 09:52:07;;;;;;;7.68;3.08;;;;;;;;;;5054692;28;20476;-70
2023/07/15 09:54:34;;;;;;;10.13;3.55;;;;;;;;;;5068133;28;20052;-70
2023/07/15 09:57:01;;;;;;;6.15;2.90;;;;;;;;;;5051462;28;20132;-70
2023/07/15 09:59:28;;;;;;;8.52;2.92;;;;;;;;;;5070928;28;20063;-70
2023/07/15 10:01:55;;;;;;;6.63;2.97;;;;;;;;;;5048382;28;20436;-70
2023/07/15 10:04:34;;;;;;;6.18;2.83;;;;;;;;;;5053710;28;21528;-71
2023/07/15 10:07:01;;;;;;;8.65;3.03;;;;;;;;;;5037380;28;20481;-70
2023/07/15 10:09:27;;;;;;;5.90;2.80;;;;;;;;;;5048123;28;20053;-70
2023/07/15 10:11:54;;;;;;;7.93;3.20;;;;;;;;;;5029429;28;20054;-70
2023/07/15 10:14:21;;;;;;;6.72;3.22;;;;;;;;;;5029704;28;20864;-70
2023/07/15 10:17:07;;;;;;;6.72;3.08;;;;;;;;;;5027880;28;20077;-70
2023/07/15 10:19:50;;;;;;;7.53;3.10;;;;;;;;;;5020027;28;20108;-70
2023/07/15 10:22:21;;;;;;;7.65;2.97;;;;;;;;;;5029807;28;20129;-71
2023/07/15 10:24:54;;;;;;;7.57;3.13;;;;;;;;;;5044197;28;20053;-70
2023/07/15 10:27:20;;;;;;;7.18;3.35;;;;;;;;;;5039056;28;20033;-70
2023/07/15 10:29:46;;;;;;;7.40;2.88;;;;;;;;;;5030921;28;20370;-71
2023/07/15 10:32:12;;;;;;;4.95;2.83;;;;;;;;;;5030522;28;20046;-70
2023/07/15 10:34:48;;;;;;;6.70;3.05;;;;;;;;;;5029116;28;20041;-70
2023/07/15 10:37:15;;;;;;;6.55;3.03;;;;;;;;;;5033876;28;20044;-70
2023/07/15 10:39:42;;;;;;;4.20;2.53;;;;;;;;;;5024945;28;20393;-71
2023/07/15 10:42:10;;;;;;;8.00;3.90;;;;;;;;;;5040956;28;20048;-71
2023/07/15 10:44:46;;;;;;;6.07;2.83;;;;;;;;;;5031332;28;20382;-70
2023/07/15 10:47:14;;;;;;;8.85;5.78;;;;;;;;;;5031904;28;20405;-70
2023/07/15 10:49:41;;;;;;;10.45;8.73;;;;;;;;;;5027574;28;20045;-70
2023/07/15 10:52:07;;;;;;;5.72;2.97;;;;;;;;;;5029742;28;20064;-70
2023/07/15 10:54:36;;;;;;;6.53;3.00;;;;;;;;;;5032876;28;20060;-70
2023/07/15 10:57:14;;;;;;;6.85;2.65;;;;;;;;;;5029427;28;20115;-70
2023/07/15 10:59:41;;;;;;;4.93;2.60;;;;;;;;;;5032160;28;20066;-71
2023/07/15 11:02:07;;;;;;;7.00;2.95;;;;;;;;;;5025496;28;20123;-70
2023/07/15 11:04:34;;;;;;;5.50;2.80;;;;;;;;;;5030020;28;20363;-70
2023/07/15 11:07:04;;;;;;;6.10;2.90;;;;;;;;;;5039460;28;20053;-70
2023/07/15 11:09:30;;;;;;;4.35;2.80;;;;;;;;;;5071355;28;20058;-70
2023/07/15 11:11:56;;;;;;;5.45;2.88;;;;;;;;;;5067162;28;20115;-70
2023/07/15 11:14:22;;;;;;;4.53;2.67;;;;;;;;;;5050525;28;20490;-70
2023/07/15 11:16:52;;;;;;;4.35;2.60;;;;;;;;;;5068851;28;20037;-70
2023/07/15 11:19:18;;;;;;;3.75;2.90;;;;;;;;;;5051075;28;20067;-71
2023/07/15 11:21:45;;;;;;;5.57;2.60;;;;;;;;;;5052434;28;20044;-70
2023/07/15 11:24:14;;;;;;;5.90;2.50;;;;;;;;;;5068266;28;20047;-70
2023/07/15 11:26:41;;;;;;;6.60;3.10;;;;;;;;;;5070502;28;20044;-70
2023/07/15 11:29:34;;;;;;;6.22;2.88;;;;;;;;;;5048810;28;20060;-70
2023/07/15 11:32:01;;;;;;;6.90;2.87;;;;;;;;;;5041714;28;20822;-70
2023/07/15 11:34:27;;;;;;;5.78;2.80;;;;;;;;;;5056411;28;20143;-70
2023/07/15 11:36:54;;;;;;;8.70;3.00;;;;;;;;;;5052084;28;20063;-70
2023/07/15 11:39:20;;;;;;;4.35;2.90;;;;;;;;;;5056939;28;20048;-70
2023/07/15 11:41:46;;;;;;;4.57;2.70;;;;;;;;;;5071464;28;20426;-70
2023/07/15 11:44:13;;;;;;;5.20;3.10;;;;;;;;;;5051237;28;20499;-70
2023/07/15 11:46:40;;;;;;;6.22;3.05;;;;;;;;;;5048912;28;20079;-70
2023/07/15 11:49:06;;;;;;;4.82;2.78;;;;;;;;;;5051182;28;20135;-70
2023/07/15 11:51:33;;;;;;;5.43;2.75;;;;;;;;;;5071206;28;20068;-70
2023/07/15 11:53:59;;;;;;;5.57;2.60;;;;;;;;;;5070585;28;20060;-70
2023/07/15 11:56:36;;;;;;;3.50;2.58;;;;;;;;;;5070667;28;20048;-70
2023/07/15 11:59:03;;;;;;;5.25;2.63;;;;;;;;;;5068981;28;20097;-69
2023/07/15 12:01:29;;;;;;;4.03;2.50;;;;;;;;;;5064329;28;20037;-70
2023/07/15 12:03:55;;;;;;;3.53;2.47;;;;;;;;;;5070117;28;20040;-70
2023/07/15 12:06:22;;;;;;;7.18;2.75;;;;;;;;;;5051548;28;20431;-71
2023/07/15 12:09:01;;;;;;;6.38;3.05;;;;;;;;;;5052972;28;20053;-70
2023/07/15 12:11:27;;;;;;;4.30;2.97;;;;;;;;;;5052101;28;20114;-70
2023/07/15 12:13:53;;;;;;;6.05;2.60;;;;;;;;;;5070623;28;20059;-70
2023/07/15 12:16:21;;;;;;;3.67;2.65;;;;;;;;;;5053213;28;20045;-70
2023/07/15 12:18:47;;;;;;;6.93;2.78;;;;;;;;;;5049122;28;20036;-70
2023/07/15 12:21:13;;;;;;;4.47;2.65;;;;;;;;;;5067023;28;20568;-70
2023/07/15 12:23:41;;;;;;;5.53;2.67;;;;;;;;;;5070270;28;20451;-70
2023/07/15 12:26:07;;;;;;;4.28;2.60;;;;;;;;;;5070223;28;20131;-70
2023/07/15 12:28:33;;;;;;;7.35;3.15;;;;;;;;;;5070012;28;20146;-70
2023/07/15 12:30:59;;;;;;;9.02;2.95;;;;;;;;;;5052080;28;20113;-70
2023/07/15 12:33:25;;;;;;;4.20;2.85;;;;;;;;;;5070103;28;20072;-70
2023/07/15 12:35:51;;;;;;;8.35;3.08;;;;;;;;;;5068266;28;20083;-70
2023/07/15 12:38:17;;;;;;;4.57;2.80;;;;;;;;;;5069334;28;20044;-70
2023/07/15 12:40:44;;;;;;;3.83;2.50;;;;;;;;;;5051905;28;20049;-70
2023/07/15 12:43:10;;;;;;;4.03;2.53;;;;;;;;;;5069414;28;20082;-70
2023/07/15 12:45:36;;;;;;;4.00;2.50;;;;;;;;;;5052059;28;20056;-70
2023/07/15 12:48:02;;;;;;;4.45;2.88;;;;;;;;;;5036584;28;20055;-70
2023/07/15 12:50:31;;;;;;;4.07;2.53;;;;;;;;;;5068451;28;20049;-70
2023/07/15 12:52:57;;;;;;;4.05;2.72;;;;;;;;;;5056198;28;20047;-70
2023/07/15 12:55:23;;;;;;;6.00;3.00;;;;;;;;;;5071671;28;20400;-70
2023/07/15 12:57:49;;;;;;;5.55;2.75;;;;;;;;;;5072278;28;20036;-70
2023/07/15 13:00:15;;;;;;;4.80;2.90;;;;;;;;;;5074152;28;20048;-70
2023/07/15 13:02:42;;;;;;;3.92;2.70;;;;;;;;;;5055197;28;20138;-70
2023/07/15 13:05:08;;;;;;;4.53;2.60;;;;;;;;;;5073606;28;20094;-70
2023/07/15 13:07:34;;;;;;;4.28;2.60;;;;;;;;;;5073230;28;20056;-70
2023/07/15 13:10:00;;;;;;;4.03;2.67;;;;;;;;;;5055004;28;20496;-70
2023/07/15 13:12:26;;;;;;;3.55;2.80;;;;;;;;;;5072703;28;20033;-70
2023/07/15 13:14:52;;;;;;;6.43;3.10;;;;;;;;;;5073827;28;20373;-71
2023/07/15 13:17:19;;;;;;;3.67;2.80;;;;;;;;;;5072707;28;20041;-70
2023/07/15 13:19:45;;;;;;;5.55;3.15;;;;;;;;;;5074168;28;20044;-70
2023/07/15 13:22:11;;;;;;;4.15;2.67;;;;;;;;;;5067809;28;20062;-69
2023/07/15 13:24:37;;;;;;;3.88;2.80;;;;;;;;;;5050706;28;20048;-70
2023/07/15 13:27:03;;;;;;;6.47;3.20;;;;;;;;;;5071394;28;20123;-68
2023/07/15 13:29:29;;;;;;;3.45;2.70;;;;;;;;;;5071698;28;20044;-68
2023/07/15 13:31:55;;;;;;;4.43;2.75;;;;;;;;;;5058965;28;20174;-68
2023/07/15 13:34:21;;;;;;;3.33;2.78;;;;;;;;;;5072940;28;20139;-69
2023/07/15 13:36:47;;;;;;;3.63;2.60;;;;;;;;;;5071852;28;20141;-71
2023/07/15 13:39:34;;;;;;;3.90;2.75;;;;;;;;;;5070651;28;20044;-71
2023/07/15 13:42:00;;;;;;;4.22;2.65;;;;;;;;;;5065031;28;20893;-71
2023/07/15 13:44:26;;;;;;;3.88;2.75;;;;;;;;;;5054827;28;20115;-71
2023/07/15 13:46:52;;;;;;;3.83;2.72;;;;;;;;;;5069385;28;20052;-69
2023/07/15 13:49:18;;;;;;;4.00;2.40;;;;;;;;;;5069474;28;20040;-69
2023/07/15 13:51:44;;;;;;;3.30;2.53;;;;;;;;;;5071221;28;20055;-70
2023/07/15 13:54:10;;;;;;;2.97;2.30;;;;;;;;;;5073197;28;20044;-70
2023/07/15 13:56:36;;;;;;;4.82;2.50;;;;;;;;;;5071893;28;20120;-70
2023/07/15 13:59:02;;;;;;;2.88;2.67;;;;;;;;;;5053198;28;20529;-69
2023/07/15 14:01:28;;;;;;;3.88;2.60;;;;;;;;;;5070686;28;20050;-69
2023/07/15 14:03:54;;;;;;;2.90;2.60;;;;;;;;;;5070182;28;20128;-71
2023/07/15 14:06:20;;;;;;;4.55;2.50;;;;;;;;;;5072743;28;20090;-71
2023/07/15 14:08:46;;;;;;;5.18;3.65;;;;;;;;;;5054826;28;20132;-70
2023/07/15 14:11:12;;;;;;;3.85;2.95;;;;;;;;;;5071699;28;20055;-70
2023/07/15 14:13:38;;;;;;;4.35;2.70;;;;;;;;;;5072240;28;20373;-70
2023/07/15 14:16:04;;;;;;;4.85;2.88;;;;;;;;;;5064910;28;20506;-71
2023/07/15 14:18:30;;;;;;;4.47;2.53;;;;;;;;;;5070623;28;20507;-70
2023/07/15 14:20:56;;;;;;;4.03;2.67;;;;;;;;;;5070058;28;20048;-70
2023/07/15 14:23:22;;;;;;;4.22;2.90;;;;;;;;;;5072247;28;20044;-79
2023/07/15 14:25:49;;;;;;;3.08;2.55;;;;;;;;;;5046063;28;20086;-70
2023/07/15 14:28:15;;;;;;;5.25;2.83;;;;;;;;;;5064979;28;20115;-69
2023/07/15 14:30:41;;;;;;;3.50;2.85;;;;;;;;;;5081344;28;20047;-69
2023/07/15 14:33:07;;;;;;;4.15;2.80;;;;;;;;;;5071694;28;20044;-69
2023/07/15 14:35:33;;;;;;;4.60;3.13;;;;;;;;;;5071027;28;20082;-69
2023/07/15 14:37:59;;;;;;;7.22;3.80;;;;;;;;;;5071933;28;20041;-69